Terminal Aerodrome Forecast
Issued by NWS

Home | Current Version | Previous Version | Text Only | Print | Product List | Glossary On
Versions: 1 2 3 4 5 6 7 8 9 10 11 12 13 14 15 16 17 18 19 20
358
FTPA31 PHFO 191744
TAFHLI
TAF
PHLI 191744Z 1918/2018 06010KT P6SM VCSH SCT025 BKN035
     FM201100 30006KT P6SM FEW025 SCT035=

USA.gov is the U.S. government's official web portal to all federal, state and local government web resources and services.